Time;durP1;ratioP1;P1;durP2;ratioP2;P2;SDS_P1;SDS_P2;PMS_P1;PMS_P2;Temp;Humidity;BMP_temperature;BMP_pressure;BME280_temperature;BME280_humidity;BME280_pressure;Samples;Min_cycle;Max_cycle;Signal;HPM_P1;HPM_P2
2022/01/16 00:04:07;;;;;;;9.93;6.47;;;9.50;82.10;;;;;;5091882;28;20048;-54
2022/01/16 00:06:38;;;;;;;10.02;7.03;;;9.50;82.20;;;;;;5090663;28;20056;-56
2022/01/16 00:09:04;;;;;;;9.23;5.75;;;9.50;82.20;;;;;;5091231;28;20415;-55
2022/01/16 00:11:31;;;;;;;8.40;5.97;;;9.50;82.10;;;;;;5091260;28;20032;-57
2022/01/16 00:13:57;;;;;;;10.88;6.95;;;9.50;82.10;;;;;;5091541;28;20395;-56
2022/01/16 00:16:23;;;;;;;8.27;5.93;;;9.50;82.10;;;;;;5091520;28;20036;-56
2022/01/16 00:18:49;;;;;;;8.68;5.90;;;9.50;82.10;;;;;;5091200;28;20043;-54
2022/01/16 00:21:22;;;;;;;8.02;5.82;;;9.50;82.10;;;;;;5067011;28;20044;-54
2022/01/16 00:23:49;;;;;;;10.85;6.75;;;9.50;82.10;;;;;;5085046;28;20036;-55
2022/01/16 00:26:15;;;;;;;9.70;6.60;;;9.40;82.10;;;;;;5076561;28;20032;-55
2022/01/16 00:28:41;;;;;;;9.77;6.32;;;9.50;82.10;;;;;;5089628;28;20036;-55
2022/01/16 00:31:08;;;;;;;9.43;6.88;;;9.50;82.10;;;;;;5078666;28;20131;-55
2022/01/16 00:33:34;;;;;;;11.07;6.30;;;9.40;82.10;;;;;;5085757;28;20385;-56
2022/01/16 00:35:59;;;;;;;9.43;6.60;;;9.50;82.10;;;;;;5088197;28;20043;-55
2022/01/16 00:38:25;;;;;;;9.27;6.53;;;9.50;82.10;;;;;;5085649;28;20118;-54
2022/01/16 00:40:50;;;;;;;8.60;6.40;;;9.40;82.10;;;;;;5058222;28;20040;-55
2022/01/16 00:43:16;;;;;;;9.40;6.55;;;9.50;82.10;;;;;;5071126;28;20032;-56
2022/01/16 00:45:43;;;;;;;9.93;6.55;;;9.50;82.10;;;;;;5084535;28;20499;-54
2022/01/16 00:48:09;;;;;;;9.70;6.70;;;9.50;82.10;;;;;;5083844;28;20539;-54
2022/01/16 00:50:35;;;;;;;9.80;6.65;;;9.50;82.10;;;;;;5083187;28;20124;-56
2022/01/16 00:53:02;;;;;;;9.88;7.00;;;9.50;82.10;;;;;;5069086;28;20063;-55
2022/01/16 00:55:28;;;;;;;10.90;7.38;;;9.50;82.10;;;;;;5090409;28;20048;-53
2022/01/16 00:57:54;;;;;;;9.98;6.00;;;9.50;82.10;;;;;;5054166;28;20062;-56
2022/01/16 01:00:20;;;;;;;10.38;6.82;;;9.50;82.10;;;;;;5091131;28;20040;-55
2022/01/16 01:02:46;;;;;;;9.38;7.00;;;9.40;82.10;;;;;;5090846;28;20136;-55
2022/01/16 01:05:12;;;;;;;10.00;7.35;;;9.50;82.20;;;;;;5090244;28;20507;-52
2022/01/16 01:07:40;;;;;;;10.48;6.45;;;9.50;82.20;;;;;;5090287;28;20531;-56
2022/01/16 01:10:07;;;;;;;8.70;6.80;;;9.50;82.20;;;;;;5090875;28;20032;-56
2022/01/16 01:12:51;;;;;;;9.50;6.32;;;9.50;82.20;;;;;;5090745;28;20028;-55
2022/01/16 01:15:25;;;;;;;10.02;6.95;;;9.50;82.10;;;;;;5093548;28;20404;-55
2022/01/16 01:17:51;;;;;;;10.27;6.63;;;9.40;82.10;;;;;;5094446;28;20407;-56
2022/01/16 01:20:19;;;;;;;9.98;6.97;;;9.50;82.20;;;;;;5076440;28;20047;-54
2022/01/16 01:22:46;;;;;;;10.13;6.85;;;9.40;82.20;;;;;;5075382;28;20345;-56
2022/01/16 01:25:13;;;;;;;9.30;6.03;;;9.50;82.20;;;;;;5094263;28;20051;-55
2022/01/16 01:27:44;;;;;;;11.55;7.35;;;9.50;82.20;;;;;;5094715;28;20043;-56
2022/01/16 01:30:12;;;;;;;10.77;7.10;;;9.40;82.10;;;;;;5093946;28;20044;-54
2022/01/16 01:32:39;;;;;;;11.95;7.68;;;9.40;82.20;;;;;;5093994;28;20059;-56
2022/01/16 01:35:07;;;;;;;11.93;7.90;;;9.40;82.10;;;;;;5094212;28;20051;-52
2022/01/16 01:37:33;;;;;;;11.18;8.00;;;9.50;82.20;;;;;;5093608;28;20036;-55
2022/01/16 01:39:59;;;;;;;12.05;7.65;;;9.40;82.10;;;;;;5093670;28;20647;-54
2022/01/16 01:42:32;;;;;;;11.20;7.40;;;9.40;82.20;;;;;;5094042;28;20139;-56
2022/01/16 01:53:13;;;;;;;11.40;7.70;;;9.40;82.10;;;;;;5075347;28;20048;-55
2022/01/16 01:55:42;;;;;;;10.85;7.13;;;9.40;82.20;;;;;;5093194;28;20036;-56
2022/01/16 01:58:09;;;;;;;11.05;7.03;;;9.40;82.10;;;;;;5093581;28;20044;-54
2022/01/16 02:00:35;;;;;;;12.70;8.13;;;9.40;82.10;;;;;;5093456;28;20040;-55
2022/01/16 02:03:20;;;;;;;10.20;7.03;;;9.40;82.20;;;;;;5093744;28;20040;-54
2022/01/16 02:05:45;;;;;;;10.48;7.07;;;9.40;82.10;;;;;;5093334;28;20047;-56
2022/01/16 02:08:11;;;;;;;11.18;6.78;;;9.40;82.20;;;;;;5092672;28;20404;-54
2022/01/16 02:10:39;;;;;;;11.88;8.00;;;9.40;82.10;;;;;;5074666;28;20109;-55
2022/01/16 02:13:08;;;;;;;11.63;8.32;;;9.40;82.20;;;;;;5093021;28;21918;-55
2022/01/16 02:32:24;;;;;;;12.27;7.75;;;9.40;82.10;;;;;;5092935;28;20060;-56
2022/01/16 02:34:45;;;;;;;12.02;8.27;;;9.40;82.20;;;;;;5091914;28;20699;-56
2022/01/16 02:37:14;;;;;;;10.30;7.07;;;9.40;82.20;;;;;;5092751;28;20044;-56
2022/01/16 02:39:42;;;;;;;10.65;7.22;;;9.40;82.20;;;;;;5091935;28;20508;-56
2022/01/16 02:42:11;;;;;;;12.30;8.52;;;9.40;82.20;;;;;;5092798;28;20035;-56
2022/01/16 02:44:48;;;;;;;13.13;8.45;;;9.40;82.20;;;;;;5092757;28;20040;-55
2022/01/16 02:47:17;;;;;;;11.27;8.43;;;9.40;82.20;;;;;;5092832;28;20063;-55
2022/01/16 02:49:50;;;;;;;11.95;7.63;;;9.40;82.20;;;;;;5092616;28;20082;-55
2022/01/16 02:52:20;;;;;;;13.20;7.78;;;9.40;82.20;;;;;;5092346;28;20039;-55
2022/01/16 02:54:48;;;;;;;11.10;7.65;;;9.40;82.20;;;;;;5092613;28;20040;-56
2022/01/16 02:57:20;;;;;;;13.15;8.65;;;9.40;82.20;;;;;;5091976;28;20476;-56
2022/01/16 02:59:49;;;;;;;12.43;8.43;;;9.40;82.90;;;;;;5091906;28;20103;-55
2022/01/16 03:02:16;;;;;;;12.25;7.90;;;9.40;82.20;;;;;;5092524;28;20175;-56
2022/01/16 03:04:42;;;;;;;12.18;8.38;;;9.40;82.20;;;;;;5092343;28;20431;-55
2022/01/16 03:07:08;;;;;;;11.55;8.05;;;9.40;82.20;;;;;;5091974;28;20043;-56
2022/01/16 03:12:09;;;;;;;12.65;8.43;;;9.40;82.20;;;;;;5092024;28;20052;-56
2022/01/16 03:14:35;;;;;;;13.13;8.43;;;9.40;82.20;;;;;;5092345;28;20044;-54
2022/01/16 03:17:01;;;;;;;13.07;8.07;;;9.40;82.20;;;;;;5073995;28;20119;-56
2022/01/16 03:22:12;;;;;;;12.05;8.07;;;9.40;82.20;;;;;;5091934;28;20047;-51
2022/01/16 03:24:44;;;;;;;12.77;8.48;;;9.40;82.20;;;;;;5091486;28;20090;-54
2022/01/16 03:27:15;;;;;;;12.52;8.38;;;9.40;82.20;;;;;;5087415;28;20083;-55
2022/01/16 03:29:43;;;;;;;14.20;8.93;;;9.40;82.20;;;;;;5087299;28;20092;-54
2022/01/16 03:32:13;;;;;;;11.85;8.00;;;9.40;82.20;;;;;;5089540;28;20059;-55
2022/01/16 03:34:38;;;;;;;12.40;8.38;;;9.40;82.20;;;;;;5090991;28;20093;-55
2022/01/16 03:37:05;;;;;;;13.25;8.55;;;9.40;82.20;;;;;;5091249;28;20040;-54
2022/01/16 03:39:31;;;;;;;14.38;8.82;;;9.40;82.20;;;;;;5073899;28;20480;-56
2022/01/16 03:41:58;;;;;;;13.38;8.65;;;9.40;82.20;;;;;;5091654;28;20036;-56
2022/01/16 03:44:24;;;;;;;14.90;9.38;;;9.40;82.10;;;;;;5091746;28;20118;-55
2022/01/16 03:46:50;;;;;;;14.10;8.68;;;9.40;82.20;;;;;;5091310;28;20127;-56
2022/01/16 03:49:20;;;;;;;12.07;7.95;;;9.40;82.10;;;;;;5091693;28;20121;-54
2022/01/16 03:51:48;;;;;;;12.38;8.38;;;9.40;82.20;;;;;;5073404;28;20059;-56
2022/01/16 03:54:16;;;;;;;11.98;8.45;;;9.40;82.20;;;;;;5091727;28;20050;-55
2022/01/16 03:56:43;;;;;;;13.68;8.02;;;9.40;82.20;;;;;;5091199;28;20047;-55
2022/01/16 03:59:09;;;;;;;11.75;7.90;;;9.40;82.20;;;;;;5091679;28;20440;-54
2022/01/16 04:01:35;;;;;;;12.15;7.43;;;9.40;82.20;;;;;;5091097;28;20400;-55
2022/01/16 04:04:01;;;;;;;13.95;9.27;;;9.40;82.20;;;;;;5091045;28;20036;-54
2022/01/16 04:06:27;;;;;;;12.23;7.95;;;9.40;82.20;;;;;;5091339;28;20098;-55
2022/01/16 04:08:54;;;;;;;11.88;8.20;;;9.40;82.20;;;;;;5091574;28;20519;-56
2022/01/16 04:11:25;;;;;;;13.52;8.57;;;9.40;82.20;;;;;;5091158;28;20043;-55
2022/01/16 04:13:53;;;;;;;11.73;7.82;;;9.50;82.20;;;;;;5073040;28;20052;-55
2022/01/16 04:16:22;;;;;;;13.98;9.27;;;9.40;82.20;;;;;;5090853;28;20055;-54
2022/01/16 04:18:51;;;;;;;12.45;8.23;;;9.40;82.20;;;;;;5091540;28;20101;-55
2022/01/16 04:21:23;;;;;;;13.75;8.57;;;9.40;82.20;;;;;;5090852;28;20036;-56
2022/01/16 04:23:50;;;;;;;12.73;8.95;;;9.40;82.20;;;;;;5091627;28;20071;-56
2022/01/16 04:26:17;;;;;;;11.35;7.95;;;9.40;82.20;;;;;;5090809;28;20043;-54
2022/01/16 04:28:43;;;;;;;12.93;8.57;;;9.40;82.20;;;;;;5090729;28;20044;-54
2022/01/16 04:31:09;;;;;;;12.55;8.05;;;9.40;82.20;;;;;;5072276;28;20369;-55
2022/01/16 04:33:35;;;;;;;13.48;8.80;;;9.40;82.20;;;;;;5091323;28;20113;-56
2022/01/16 04:36:02;;;;;;;16.60;10.40;;;9.40;82.20;;;;;;5090855;28;20032;-56
2022/01/16 04:38:27;;;;;;;11.18;8.00;;;9.40;82.20;;;;;;5090667;28;20044;-54
2022/01/16 04:43:47;;;;;;;14.52;9.38;;;9.40;82.20;;;;;;5090275;28;20062;-56
2022/01/16 04:46:20;;;;;;;13.40;8.75;;;9.40;82.20;;;;;;5090852;28;20032;-57
2022/01/16 04:48:47;;;;;;;11.63;8.32;;;9.40;82.20;;;;;;5093175;28;20089;-56
2022/01/16 04:51:13;;;;;;;13.38;9.32;;;9.40;82.20;;;;;;5094786;28;20040;-54
2022/01/16 04:53:40;;;;;;;14.82;9.55;;;9.40;82.20;;;;;;5094745;28;20059;-54
2022/01/16 04:56:06;;;;;;;13.02;8.65;;;9.40;82.80;;;;;;5094439;28;20071;-56
2022/01/16 04:58:33;;;;;;;14.10;9.25;;;9.40;82.20;;;;;;5094465;28;20050;-55
2022/01/16 05:00:59;;;;;;;14.73;9.20;;;9.30;82.10;;;;;;5094385;28;20541;-55
2022/01/16 05:03:26;;;;;;;13.60;8.95;;;9.40;82.20;;;;;;5094862;28;20040;-56
2022/01/16 05:05:52;;;;;;;15.00;9.88;;;9.40;82.20;;;;;;5094379;28;20557;-56
2022/01/16 05:08:17;;;;;;;13.68;9.55;;;9.40;82.20;;;;;;5093989;28;20051;-56
2022/01/16 05:10:43;;;;;;;13.40;9.18;;;9.40;82.20;;;;;;5094522;28;20494;-55
2022/01/16 05:16:46;;;;;;;15.02;9.52;;;9.40;82.20;;;;;;5094528;28;20059;-56
2022/01/16 05:18:42;;;;;;;14.25;9.07;;;9.30;82.10;;;;;;5072377;28;20051;-56
2022/01/16 05:21:08;;;;;;;14.73;9.65;;;9.40;82.20;;;;;;5094582;28;20529;-56
2022/01/16 05:23:34;;;;;;;14.30;9.05;;;9.40;82.20;;;;;;5094552;28;20051;-57
2022/01/16 05:26:00;;;;;;;13.95;9.02;;;9.40;82.20;;;;;;5094190;28;20097;-56
2022/01/16 05:28:27;;;;;;;14.88;9.98;;;9.40;82.20;;;;;;5094342;28;20078;-54
2022/01/16 05:30:52;;;;;;;14.93;8.77;;;9.40;82.20;;;;;;5094493;28;20040;-56
2022/01/16 05:33:18;;;;;;;14.80;9.18;;;9.40;82.20;;;;;;5093855;28;20075;-56
2022/01/16 05:35:44;;;;;;;14.23;9.45;;;9.40;82.20;;;;;;5094254;28;20388;-55
2022/01/16 05:38:10;;;;;;;17.58;10.75;;;9.40;82.20;;;;;;5093587;28;20143;-55
2022/01/16 05:40:37;;;;;;;15.00;9.40;;;9.40;82.20;;;;;;5093995;28;20063;-55
2022/01/16 05:43:02;;;;;;;14.38;8.88;;;9.40;82.20;;;;;;5093999;28;20028;-55
2022/01/16 05:45:28;;;;;;;16.50;9.70;;;9.40;82.90;;;;;;5093861;28;20511;-55
2022/01/16 05:47:55;;;;;;;14.45;9.02;;;9.40;82.90;;;;;;5093867;28;20131;-55
2022/01/16 05:50:22;;;;;;;14.77;9.65;;;9.40;82.20;;;;;;5093423;28;20051;-53
2022/01/16 05:52:48;;;;;;;14.98;9.80;;;9.40;82.20;;;;;;5093661;28;20369;-54
2022/01/16 05:55:14;;;;;;;17.25;9.35;;;9.40;82.20;;;;;;5094047;28;20075;-55
2022/01/16 05:57:40;;;;;;;14.50;9.57;;;9.40;82.20;;;;;;5093466;28;20119;-56
2022/01/16 06:00:07;;;;;;;15.00;9.38;;;9.30;82.20;;;;;;5092450;28;20105;-55
2022/01/16 06:02:33;;;;;;;15.52;9.73;;;9.40;82.30;;;;;;5093368;28;20038;-57
2022/01/16 06:04:59;;;;;;;16.10;10.40;;;9.40;82.20;;;;;;5088923;28;20101;-56
2022/01/16 06:07:25;;;;;;;14.38;9.15;;;9.40;82.20;;;;;;5087701;28;20476;-56
2022/01/16 06:09:52;;;;;;;16.85;9.85;;;9.30;82.20;;;;;;5090264;28;20043;-56
2022/01/16 06:12:19;;;;;;;14.52;9.32;;;9.40;82.20;;;;;;5092621;28;20289;-55
2022/01/16 06:14:44;;;;;;;13.98;9.15;;;9.30;82.20;;;;;;5091598;28;20051;-56
2022/01/16 06:17:10;;;;;;;13.82;9.32;;;9.40;82.20;;;;;;5088550;28;20044;-55
2022/01/16 06:19:36;;;;;;;16.02;10.07;;;9.40;82.20;;;;;;5088716;28;20407;-55
2022/01/16 06:22:02;;;;;;;15.70;9.30;;;9.40;82.20;;;;;;5088172;28;20078;-55
2022/01/16 06:24:27;;;;;;;13.13;9.00;;;9.40;82.20;;;;;;5093008;28;20044;-53
2022/01/16 06:26:53;;;;;;;16.30;9.32;;;9.40;82.20;;;;;;5092792;28;20135;-56
2022/01/16 06:29:20;;;;;;;14.30;9.65;;;9.40;82.20;;;;;;5093056;28;20085;-54
2022/01/16 06:31:45;;;;;;;13.95;9.60;;;9.40;82.20;;;;;;5092902;28;20044;-55
2022/01/16 06:34:12;;;;;;;16.20;9.85;;;9.40;82.20;;;;;;5074703;28;20348;-57
2022/01/16 06:36:38;;;;;;;17.13;10.50;;;9.40;82.20;;;;;;5092584;28;20048;-55
2022/01/16 06:39:06;;;;;;;19.88;9.98;;;9.40;82.20;;;;;;5092250;28;20158;-52
2022/01/16 06:41:32;;;;;;;15.15;9.55;;;9.40;82.30;;;;;;5093158;28;20051;-52
2022/01/16 06:43:58;;;;;;;15.77;9.48;;;9.30;82.20;;;;;;5092392;28;20047;-56
2022/01/16 06:46:24;;;;;;;16.88;10.80;;;9.30;82.20;;;;;;5092669;28;20332;-54
2022/01/16 06:48:53;;;;;;;15.02;9.50;;;9.40;82.30;;;;;;5092581;28;20131;-56
2022/01/16 06:51:20;;;;;;;14.68;8.85;;;9.40;82.20;;;;;;5092690;28;20047;-56
2022/01/16 06:53:47;;;;;;;17.42;9.98;;;9.40;82.30;;;;;;5092091;28;20043;-56
2022/01/16 06:56:13;;;;;;;15.40;9.07;;;9.40;82.30;;;;;;5092615;28;20044;-57
2022/01/16 06:58:39;;;;;;;14.73;9.85;;;9.30;82.20;;;;;;5092365;28;20040;-54
2022/01/16 07:01:05;;;;;;;16.63;9.57;;;9.30;82.20;;;;;;5092409;28;20040;-56
2022/01/16 07:03:30;;;;;;;16.95;10.80;;;9.40;82.30;;;;;;5092125;28;20040;-54
2022/01/16 07:05:57;;;;;;;14.63;9.68;;;9.40;82.20;;;;;;5092353;28;20081;-55
2022/01/16 07:08:26;;;;;;;15.35;9.45;;;9.30;82.20;;;;;;5091899;28;20055;-55
2022/01/16 07:10:56;;;;;;;15.63;9.85;;;9.30;82.20;;;;;;5092274;28;20496;-55
2022/01/16 07:13:22;;;;;;;15.13;9.90;;;9.30;82.20;;;;;;5092341;28;20094;-57
2022/01/16 07:15:49;;;;;;;16.42;9.98;;;9.30;82.20;;;;;;5092038;28;20100;-53
2022/01/16 07:18:15;;;;;;;15.35;9.52;;;9.40;82.30;;;;;;5073732;28;20047;-56
2022/01/16 07:20:43;;;;;;;14.60;9.60;;;9.30;82.20;;;;;;5074117;28;20040;-54
2022/01/16 07:23:09;;;;;;;15.02;10.50;;;9.40;82.30;;;;;;5092499;28;20115;-55
2022/01/16 07:25:35;;;;;;;14.82;8.98;;;9.30;82.20;;;;;;5092068;28;20119;-53
2022/01/16 07:28:01;;;;;;;14.85;8.98;;;9.40;82.30;;;;;;5091925;28;20087;-54
2022/01/16 07:30:27;;;;;;;13.15;8.75;;;9.40;82.30;;;;;;5092348;28;20071;-54
2022/01/16 07:32:53;;;;;;;15.30;9.23;;;9.30;82.30;;;;;;5091274;28;20515;-54
2022/01/16 07:35:19;;;;;;;16.63;10.18;;;9.40;82.30;;;;;;5092068;28;20048;-53
2022/01/16 07:37:44;;;;;;;14.07;9.55;;;9.30;82.20;;;;;;5091750;28;20078;-55
2022/01/16 07:40:11;;;;;;;15.02;9.30;;;9.40;82.30;;;;;;5091606;28;20052;-55
2022/01/16 07:42:36;;;;;;;14.13;9.25;;;9.30;82.30;;;;;;5091583;28;20407;-56
2022/01/16 07:45:03;;;;;;;14.55;9.48;;;9.30;82.20;;;;;;5091064;28;20074;-56
2022/01/16 07:47:29;;;;;;;15.60;9.27;;;9.30;82.30;;;;;;5090524;28;20043;-54
2022/01/16 07:49:55;;;;;;;15.30;8.93;;;9.30;82.30;;;;;;5090837;28;20116;-54
2022/01/16 07:52:20;;;;;;;13.68;9.52;;;9.30;82.30;;;;;;5091102;28;20480;-55
2022/01/16 07:54:46;;;;;;;14.82;9.40;;;9.40;82.30;;;;;;5091299;28;20467;-54
2022/01/16 07:57:12;;;;;;;15.07;9.13;;;9.40;82.30;;;;;;5088985;28;20111;-52
2022/01/16 07:59:37;;;;;;;14.77;9.57;;;9.30;82.20;;;;;;5070652;28;20064;-50
2022/01/16 08:02:04;;;;;;;15.05;9.73;;;9.30;82.30;;;;;;5088785;28;20047;-53
2022/01/16 08:04:29;;;;;;;13.25;8.93;;;9.30;82.30;;;;;;5090597;28;20129;-48
2022/01/16 08:06:55;;;;;;;13.93;9.02;;;9.40;82.30;;;;;;5090828;28;20478;-51
2022/01/16 08:09:20;;;;;;;14.00;9.10;;;9.40;82.30;;;;;;5070381;28;20055;-52
2022/01/16 08:11:46;;;;;;;16.45;9.82;;;9.40;82.30;;;;;;5090702;28;20117;-52
2022/01/16 08:14:12;;;;;;;14.75;9.45;;;9.40;82.30;;;;;;5088695;28;20111;-50
2022/01/16 08:16:37;;;;;;;12.95;9.02;;;9.30;82.30;;;;;;5088440;28;20111;-51
2022/01/16 08:19:03;;;;;;;13.60;8.75;;;9.30;82.30;;;;;;5088356;28;20067;-51
2022/01/16 08:21:29;;;;;;;15.57;9.43;;;9.40;82.30;;;;;;5089431;28;20068;-50
2022/01/16 08:23:55;;;;;;;13.27;8.65;;;9.30;82.20;;;;;;5093515;28;20123;-52
2022/01/16 08:26:20;;;;;;;15.60;10.35;;;9.30;82.20;;;;;;5095592;28;20127;-48
2022/01/16 08:28:46;;;;;;;14.23;9.48;;;9.30;82.30;;;;;;5095914;28;20040;-55
2022/01/16 08:31:12;;;;;;;13.52;9.18;;;9.30;82.30;;;;;;5066085;28;20067;-55
2022/01/16 08:33:38;;;;;;;12.85;8.77;;;9.40;82.30;;;;;;5087665;28;20056;-51
2022/01/16 08:36:04;;;;;;;13.52;8.57;;;9.30;82.30;;;;;;5094314;28;20048;-56
2022/01/16 08:38:30;;;;;;;13.50;9.57;;;9.30;82.30;;;;;;5095074;28;20123;-54
2022/01/16 08:40:56;;;;;;;14.48;9.00;;;9.30;82.30;;;;;;5094421;28;20048;-52
2022/01/16 08:43:23;;;;;;;12.27;8.57;;;9.30;82.20;;;;;;5094651;28;20040;-51
2022/01/16 08:45:49;;;;;;;14.50;9.38;;;9.30;82.30;;;;;;5075764;28;20341;-54
2022/01/16 08:48:15;;;;;;;13.13;8.38;;;9.30;82.30;;;;;;5094314;28;20079;-53
2022/01/16 08:50:40;;;;;;;14.07;9.60;;;9.30;82.30;;;;;;5093896;28;20072;-55
2022/01/16 08:53:07;;;;;;;13.00;9.45;;;9.40;82.30;;;;;;5094468;28;20611;-54
2022/01/16 08:55:34;;;;;;;14.25;9.27;;;9.30;82.30;;;;;;5093699;28;20063;-57
2022/01/16 08:58:01;;;;;;;12.57;8.57;;;9.30;82.20;;;;;;5091014;28;20497;-52
2022/01/16 09:00:27;;;;;;;11.52;8.23;;;9.40;82.30;;;;;;5093574;28;20136;-50
2022/01/16 09:02:59;;;;;;;13.32;8.98;;;9.30;82.30;;;;;;5092743;28;20044;-53
2022/01/16 09:05:26;;;;;;;13.60;8.80;;;9.40;82.30;;;;;;5074427;28;20032;-53
2022/01/16 09:07:52;;;;;;;13.18;8.40;;;9.30;82.30;;;;;;5092734;28;20044;-54
2022/01/16 09:10:21;;;;;;;12.75;8.30;;;9.40;82.30;;;;;;5092807;28;20044;-49
2022/01/16 09:12:46;;;;;;;11.68;8.50;;;9.40;82.30;;;;;;5093117;28;20052;-54
2022/01/16 09:15:13;;;;;;;13.02;8.38;;;9.40;82.30;;;;;;5093704;28;20039;-53
2022/01/16 09:17:40;;;;;;;14.02;8.57;;;9.40;82.30;;;;;;5093080;28;20039;-53
2022/01/16 09:20:07;;;;;;;10.90;7.80;;;9.30;82.20;;;;;;5066929;28;20380;-53
2022/01/16 09:22:33;;;;;;;12.60;8.98;;;9.30;82.20;;;;;;5073260;28;20365;-57
2022/01/16 09:24:58;;;;;;;11.93;8.05;;;9.40;82.30;;;;;;5073368;28;20123;-55
2022/01/16 09:27:24;;;;;;;12.45;7.93;;;9.30;82.30;;;;;;5072953;28;20123;-55
2022/01/16 09:29:50;;;;;;;11.85;8.73;;;9.30;82.30;;;;;;5082045;28;20040;-55
2022/01/16 09:32:16;;;;;;;11.25;7.85;;;9.40;82.30;;;;;;5093161;28;20137;-57
2022/01/16 09:34:43;;;;;;;11.05;8.35;;;9.30;82.30;;;;;;5090995;28;20090;-51
2022/01/16 09:37:09;;;;;;;13.60;8.63;;;9.30;82.30;;;;;;5093398;28;20222;-55
2022/01/16 09:39:39;;;;;;;12.15;8.55;;;9.40;82.30;;;;;;5092973;28;20373;-51
2022/01/16 09:42:06;;;;;;;13.55;8.82;;;9.40;82.30;;;;;;5092719;28;20124;-53
2022/01/16 09:44:36;;;;;;;12.88;8.00;;;9.40;82.30;;;;;;5092447;28;20511;-56
2022/01/16 09:47:02;;;;;;;11.77;8.30;;;9.30;82.30;;;;;;5088500;28;20062;-57
2022/01/16 09:49:28;;;;;;;12.40;7.80;;;9.40;82.30;;;;;;5078314;28;20094;-53
2022/01/16 09:51:54;;;;;;;12.32;7.97;;;9.40;82.30;;;;;;5065411;28;20048;-55
2022/01/16 09:54:22;;;;;;;11.57;7.72;;;9.30;82.30;;;;;;5091953;28;20044;-55
2022/01/16 09:56:48;;;;;;;12.27;8.52;;;9.40;82.40;;;;;;5074451;28;20066;-54
2022/01/16 09:59:14;;;;;;;12.95;8.73;;;9.30;82.30;;;;;;5091714;28;20093;-53
2022/01/16 10:01:40;;;;;;;11.57;8.13;;;9.40;82.30;;;;;;5091958;28;20048;-53
2022/01/16 10:04:35;;;;;;;13.63;8.60;;;9.40;82.30;;;;;;5092213;28;20043;-52
2022/01/16 10:07:07;;;;;;;11.85;8.45;;;9.40;82.30;;;;;;5090928;28;20048;-54
2022/01/16 10:09:37;;;;;;;12.15;8.75;;;9.30;82.30;;;;;;5091864;28;20068;-53
2022/01/16 10:12:13;;;;;;;11.52;8.10;;;9.40;82.30;;;;;;5091868;28;20036;-54
2022/01/16 10:14:46;;;;;;;11.05;7.47;;;9.30;82.30;;;;;;5088891;28;20052;-57
2022/01/16 10:17:15;;;;;;;10.75;7.60;;;9.30;82.30;;;;;;5088320;28;20048;-56
2022/01/16 10:19:41;;;;;;;13.18;8.48;;;9.30;82.30;;;;;;5068813;28;20052;-57
2022/01/16 10:22:10;;;;;;;11.60;7.88;;;9.40;82.30;;;;;;5077538;28;20105;-57
2022/01/16 10:24:39;;;;;;;11.18;7.90;;;9.40;82.30;;;;;;5080157;28;20094;-56
2022/01/16 10:27:07;;;;;;;12.00;8.48;;;9.40;82.30;;;;;;5070954;28;20116;-56
2022/01/16 10:29:39;;;;;;;11.15;7.80;;;9.30;82.30;;;;;;5083608;28;20036;-58
2022/01/16 10:32:18;;;;;;;10.40;7.75;;;9.30;82.30;;;;;;5088465;28;20503;-56
2022/01/16 10:34:47;;;;;;;13.02;8.55;;;9.30;82.30;;;;;;5088792;28;20210;-56
2022/01/16 10:37:30;;;;;;;11.05;8.00;;;9.40;82.30;;;;;;5088750;28;20377;-56
2022/01/16 10:40:09;;;;;;;10.40;7.80;;;9.40;82.30;;;;;;5087415;28;20069;-57
2022/01/16 10:42:35;;;;;;;11.70;7.78;;;9.40;82.30;;;;;;5085037;28;20036;-57
2022/01/16 10:45:03;;;;;;;10.77;8.13;;;9.40;82.30;;;;;;5087709;28;20168;-56
2022/01/16 10:47:36;;;;;;;10.75;7.65;;;9.30;82.30;;;;;;5087339;28;20074;-57
2022/01/16 10:50:32;;;;;;;10.73;8.48;;;9.30;82.30;;;;;;5087613;28;20178;-57
2022/01/16 10:53:02;;;;;;;9.85;7.65;;;9.30;82.30;;;;;;5066466;28;20063;-56
2022/01/16 10:55:49;;;;;;;11.13;7.80;;;9.40;82.30;;;;;;5069543;28;20044;-56
2022/01/16 10:58:24;;;;;;;9.13;7.05;;;9.40;82.30;;;;;;5088584;28;20046;-57
2022/01/16 11:00:53;;;;;;;;;;;9.40;82.40;;;;;;5085073;28;20036;-51
2022/01/16 11:03:20;;;;;;;9.45;6.88;;;9.30;82.30;;;;;;5087462;28;20375;-51
2022/01/16 11:05:47;;;;;;;9.80;6.95;;;9.30;82.40;;;;;;5087465;28;20126;-53
2022/01/16 11:08:15;;;;;;;10.57;7.38;;;9.40;82.40;;;;;;5087131;28;20874;-52
2022/01/16 11:10:45;;;;;;;9.40;6.68;;;9.30;82.40;;;;;;5087202;28;20065;-54
2022/01/16 11:13:16;;;;;;;10.88;7.75;;;9.40;82.70;;;;;;5087371;28;20055;-54
2022/01/16 11:15:44;;;;;;;9.75;7.05;;;9.40;82.40;;;;;;5087571;28;20124;-53
2022/01/16 11:18:12;;;;;;;9.48;6.60;;;9.40;82.40;;;;;;5086870;28;20048;-51
2022/01/16 11:20:39;;;;;;;8.60;7.05;;;9.40;82.40;;;;;;5083282;28;20044;-52
2022/01/16 11:23:28;;;;;;;10.75;7.32;;;9.40;82.40;;;;;;5068305;28;20055;-55
2022/01/16 11:26:01;;;;;;;9.70;7.88;;;9.40;82.40;;;;;;5086230;28;20134;-56
2022/01/16 11:28:28;;;;;;;9.70;7.20;;;9.40;82.40;;;;;;5087073;28;20048;-53
2022/01/16 11:30:57;;;;;;;9.18;7.25;;;9.30;82.30;;;;;;5086385;28;20040;-55
2022/01/16 11:33:25;;;;;;;8.35;7.03;;;9.40;83.00;;;;;;5068297;28;20138;-55
2022/01/16 11:35:55;;;;;;;11.00;7.10;;;9.40;82.30;;;;;;5086954;28;20090;-52
2022/01/16 11:38:23;;;;;;;9.40;7.28;;;9.30;82.30;;;;;;5087760;28;20553;-53
2022/01/16 11:40:49;;;;;;;9.30;7.07;;;9.40;83.00;;;;;;5087014;28;20052;-52
2022/01/16 11:43:23;;;;;;;8.77;6.93;;;9.40;82.40;;;;;;5067119;28;20076;-51
2022/01/16 11:45:53;;;;;;;11.50;7.20;;;9.40;82.30;;;;;;5068786;28;20054;-51
2022/01/16 11:48:32;;;;;;;9.90;7.43;;;9.40;82.30;;;;;;5087336;28;20403;-54
2022/01/16 11:50:57;;;;;;;13.38;7.95;;;9.40;82.30;;;;;;5085168;28;20075;-54
2022/01/16 11:54:00;;;;;;;8.90;6.35;;;9.40;82.30;;;;;;5087257;28;20534;-53
2022/01/16 11:56:40;;;;;;;10.57;7.38;;;9.40;82.30;;;;;;5087817;28;20044;-56
2022/01/16 11:59:15;;;;;;;7.85;6.15;;;9.40;82.30;;;;;;5086808;28;20059;-55
2022/01/16 12:01:45;;;;;;;10.35;7.25;;;9.40;82.30;;;;;;5087865;28;20062;-56
2022/01/16 12:04:29;;;;;;;9.13;6.82;;;9.40;82.30;;;;;;5084780;28;20483;-56
2022/01/16 12:06:57;;;;;;;8.65;6.35;;;9.30;82.30;;;;;;5084223;28;20040;-57
2022/01/16 12:09:40;;;;;;;8.48;6.32;;;9.40;82.30;;;;;;5087580;28;20044;-54
2022/01/16 12:12:31;;;;;;;9.13;6.40;;;9.40;82.30;;;;;;5089108;28;20051;-56
2022/01/16 12:15:18;;;;;;;9.68;6.32;;;9.40;82.30;;;;;;5052174;28;20128;-57
2022/01/16 12:17:49;;;;;;;7.80;5.90;;;9.40;82.30;;;;;;5052868;28;20124;-57
2022/01/16 12:20:18;;;;;;;9.05;6.10;;;9.40;82.30;;;;;;5080834;28;20036;-56
2022/01/16 12:23:03;;;;;;;8.25;6.05;;;9.40;82.30;;;;;;5088625;28;20054;-55
2022/01/16 12:25:45;;;;;;;13.95;7.28;;;9.40;82.30;;;;;;5072037;28;20170;-56
2022/01/16 12:28:10;;;;;;;9.80;7.03;;;9.40;82.20;;;;;;5089811;28;20051;-55
2022/01/16 12:30:39;;;;;;;10.95;7.95;;;9.40;82.20;;;;;;5090687;28;20040;-53
2022/01/16 12:33:20;;;;;;;11.57;7.18;;;9.30;82.20;;;;;;5089760;28;20114;-56
2022/01/16 12:35:49;;;;;;;11.38;6.88;;;9.40;82.20;;;;;;5090466;28;20580;-55
2022/01/16 12:38:25;;;;;;;12.10;7.20;;;9.30;82.20;;;;;;5089662;28;20484;-56
2022/01/16 12:40:52;;;;;;;12.20;6.70;;;9.30;82.20;;;;;;5089630;28;20385;-56
2022/01/16 12:45:53;;;;;;;10.70;6.93;;;9.40;82.30;;;;;;5082118;28;20048;-56
2022/01/16 12:48:19;;;;;;;11.18;6.88;;;9.30;82.20;;;;;;5090396;28;20129;-57
2022/01/16 12:50:45;;;;;;;10.40;6.75;;;9.30;82.30;;;;;;5071717;28;20103;-55
2022/01/16 12:53:11;;;;;;;12.27;6.95;;;9.30;82.20;;;;;;5089403;28;20131;-56
2022/01/16 12:55:36;;;;;;;8.15;6.38;;;9.30;82.20;;;;;;5090463;28;20040;-56
2022/01/16 12:58:19;;;;;;;13.02;6.60;;;9.30;82.20;;;;;;5089799;28;20036;-57
2022/01/16 13:01:17;;;;;;;10.90;6.50;;;9.30;82.20;;;;;;5089975;28;20074;-55
2022/01/16 13:03:44;;;;;;;10.10;7.07;;;9.30;82.80;;;;;;4988109;28;20058;-57
2022/01/16 13:06:24;;;;;;;13.32;6.72;;;9.30;82.00;;;;;;4987707;28;20527;-57
2022/01/16 13:09:04;;;;;;;8.73;6.35;;;9.30;82.10;;;;;;4988065;28;20046;-58
2022/01/16 13:11:37;;;;;;;11.95;6.65;;;9.20;82.10;;;;;;4992033;28;20092;-58
2022/01/16 13:14:05;;;;;;;9.77;6.20;;;9.20;82.20;;;;;;4988513;28;20156;-57
2022/01/16 13:16:46;;;;;;;10.05;6.57;;;9.30;82.30;;;;;;4991505;28;20049;-58
2022/01/16 13:19:24;;;;;;;12.73;6.55;;;9.30;82.30;;;;;;4991271;28;20058;-56
2022/01/16 13:22:24;;;;;;;9.95;6.78;;;9.30;82.30;;;;;;4991111;28;20093;-58
2022/01/16 13:24:55;;;;;;;8.30;5.90;;;9.30;82.40;;;;;;4988156;28;20133;-56
2022/01/16 13:27:24;;;;;;;10.05;5.88;;;9.30;82.30;;;;;;4996724;28;20478;-56
2022/01/16 13:29:52;;;;;;;8.70;6.30;;;9.30;82.30;;;;;;5010485;28;20084;-58
2022/01/16 13:32:20;;;;;;;9.95;6.15;;;9.30;82.30;;;;;;5006817;28;20046;-56
2022/01/16 13:34:53;;;;;;;8.10;5.43;;;9.30;83.00;;;;;;4994434;28;20249;-57
2022/01/16 13:37:26;;;;;;;7.65;5.70;;;9.30;82.30;;;;;;4991586;28;20054;-56